Nome, AK

6:27 AM AKDT on April 18, 2015 (GMT -0800)
Nome | | Change Station
CLOSE
Current Station
Airport
Location: Nome,
Elevation: 36 ft
Nearby Weather Stations

Elev 36 ft 64.51 °N, 165.45 °W | Updated 34 minutes ago

Scattered Clouds
Scattered Clouds
17 °F
Feels Like 6 °F
N
9
Wind Variable Wind from North

Today
High -- | Low -- °F
--% Chance of Precip.
Yesterday
High -- | Low -- °F
Precip. -- in
7:17 AM 10:46 PM
Waning Crescent, 0% visible
Pressure 29.70 in
Visibility 10.0 miles
Clouds Few 4000 ft
Scattered Clouds 6000 ft
Scattered Clouds 9000 ft
Windchill 6 °F
Dew Point 13 °F
Humidity 84%
Rainfall 0.00 in
Snow Depth Not available.
UV 0 out of 12
Pollen Not available.
Air Quality Not available.
Flu Activity Sporadic
METAR PAOM 181353Z 36008KT 10SM FEW040 SCT060 SCT090 M08/M11 A2970 RMK SLP057 T10831106 $ VIA AUTODIAL

More Conditions Fewer Conditions

Pressure 29.70 in
Visibility 10.0 miles
Clouds Few 4000 ft
Scattered Clouds 6000 ft
Scattered Clouds 9000 ft
Windchill 6 °F
Dew Point 13 °F
Humidity 84%
Rainfall 0.00 in
Snow Depth Not available.
UV 0 out of 12
Pollen Not available.
Air Quality Not available.
Flu Activity Sporadic
METAR PAOM 181353Z 36008KT 10SM FEW040 SCT060 SCT090 M08/M11 A2970 RMK SLP057 T10831106 $ VIA AUTODIAL

More Conditions Fewer Conditions

10-Day Weather Forecast

Almanac

Astronomy

Apr. 18, 2015 Rise Set
Actual Time
Civil Twilight
Nautical Twilight
Astronomical Twilight
Moon
Length of Visible Light
Length of Day
Tomorrow will be .
, % of the Moon is Illuminated

Today's Extremes

State Highs State Lows

Community

WunderPhotos

Upload Photos

1,814,414 photos uploaded!

WunderBlogs® & News

Nearby

Air Quality

  Air Quality AQ Index Pollutant
Not available.

Snow Depth

Station Depth Elevation

Earthquake Activity

City Distance Mag. Time & Date
Minimum magnitude displayed is 2.5.

Coastal Water Temperatures

Place Temperature

Stations

Nearby Weather Stations

Station Location Temp. Windchill Dew Point Humidity Wind Precip. Elev Updated Type